Terminal Aerodrome Forecast
Issued by NWS Twin Cities, MN

Home | Current Version | Previous Version | Text Only | Print | Product List | Glossary On
Versions: 1 2 3 4 5 6 7 8 9 10 11 12 13 14 15 16 17 18 19 20 21 22 23 24 25 26
000
FTUS43 KMPX 252100 AAB
TAFMSP
TAF AMD
KMSP 252119Z 2521/2624 15005KT P6SM SCT015 OVC050
      TEMPO 2523/2601 P6SM -SN BKN015 OVC050
     FM260100 04005KT 6SM BR OVC015
      TEMPO 2607/2610 5SM -SN
     FM261000 36007KT P6SM OVC015=

USA.gov is the U.S. government's official web portal to all federal, state and local government web resources and services.